Norient Star — 9HRV9 — position and weather

sailwx.info

Track history (hours):
 
Tides and Currents Weather Stations Pressure Air Temp Water Temp Dewpoint Dewpoint Depression Visibility Wind Speed Wind Dir Waves Ship Positions

Norient Star

Last reported at 2014-Oct-25 00:21 UTC. Time now 2014-Oct-25 00:40 UTC.
Position N 51°53' E 004°21'.

Length 180 m; draft 6.8 m.

Type: Ship. MMSI: 249434000.

Date/timePositionNaut miles runAvg speedWind from/ knotsBaromVisibWave heightAir tempDewpointWater temp
2014-Oct-25 00:21N 51°53' E 004°21'0 0.0
2014-Oct-24 23:30N 51°53' E 004°21'0 0.0
2014-Oct-24 22:30N 51°53' E 004°21'0 0.0
2014-Oct-24 21:33N 51°53' E 004°21'0 0.0
2014-Oct-24 20:30N 51°53' E 004°21'0 0.0
2014-Oct-24 19:18N 51°53' E 004°21'0 0.0
2014-Oct-24 18:33N 51°53' E 004°21'0 0.0
2014-Oct-24 17:33N 51°53' E 004°21'0 0.0
2014-Oct-24 16:09N 51°53' E 004°21'0 0.0
2014-Oct-24 15:33N 51°53' E 004°21'0 0.0
2014-Oct-24 14:21N 51°53' E 004°21'0 0.0
2014-Oct-24 13:30N 51°53' E 004°21'0 0.0
2014-Oct-24 12:30N 51°53' E 004°21'0 0.0
2014-Oct-24 11:30N 51°53' E 004°21'0 0.0
2014-Oct-24 10:18N 51°53' E 004°21'0 0.0
2014-Oct-24 09:24N 51°53' E 004°21'0 0.0
2014-Oct-24 08:33N 51°53' E 004°21'0 0.0
2014-Oct-24 07:33N 51°53' E 004°21'0 0.0
2014-Oct-24 06:33N 51°53' E 004°21'0 0.0
2014-Oct-24 05:30N 51°53' E 004°21'0 0.0
2014-Oct-24 04:30N 51°53' E 004°21'0 0.0
2014-Oct-24 03:33N 51°53' E 004°21'0 0.0
2014-Oct-24 02:18N 51°53' E 004°21'0 0.0
2014-Oct-24 01:30N 51°53' E 004°21'0 0.0
2014-Oct-24 00:30N 51°53' E 004°21'0 0.0
2014-Oct-23 23:30N 51°53' E 004°21'0 0.0
2014-Oct-23 22:18N 51°53' E 004°21'0 0.0
2014-Oct-23 21:32N 51°53' E 004°21'0 0.0
2014-Oct-23 20:08N 51°53' E 004°21'0 0.0
2014-Oct-23 19:32N 51°53' E 004°21'0 0.0
2014-Oct-23 18:26N 51°53' E 004°21'0 0.0
2014-Oct-23 17:32N 51°53' E 004°21'0 0.0
2014-Oct-23 16:26N 51°53' E 004°21'0 0.0
2014-Oct-23 15:26N 51°53' E 004°21'161160.8
2014-Oct-23 14:26N 51°53' E 000°00'161168.9
2014-Oct-23 13:28N 51°53' E 004°21'0 0.0
2014-Oct-23 11:28N 51°53' E 004°21'0 0.0
2014-Oct-23 10:32N 51°53' E 004°21'0 0.0
2014-Oct-23 09:32N 51°53' E 004°21'0 0.0
2014-Oct-23 08:28N 51°53' E 004°21'0 0.0
2014-Oct-23 07:26N 51°53' E 004°21'0 0.0
2014-Oct-23 06:32N 51°53' E 004°21'0 0.0
2014-Oct-23 05:32N 51°53' E 004°21'0 0.0
2014-Oct-23 04:22N 51°53' E 004°21'0 0.0
2014-Oct-23 03:26N 51°53' E 004°21'0 0.0
2014-Oct-23 02:28N 51°53' E 004°21'0 0.0
2014-Oct-23 01:28N 51°53' E 004°21'0 0.0
2014-Oct-23 00:28N 51°53' E 004°21'0 0.0
2014-Oct-22 23:32N 51°53' E 004°21'0 0.0
2014-Oct-22 22:20N 51°53' E 004°21'0 0.0
2014-Oct-22 21:32N 51°53' E 004°21'0 0.0
2014-Oct-22 20:26N 51°53' E 004°21'0 0.0
2014-Oct-22 19:22N 51°53' E 004°21'0 0.0
2014-Oct-22 18:22N 51°53' E 004°21'0 0.0
2014-Oct-22 17:32N 51°53' E 004°21'0 0.0
2014-Oct-22 16:33N 51°53' E 004°21'3 3.0
2014-Oct-22 15:33N 51°54' E 004°16'9 9.4
2014-Oct-22 14:33N 51°59' E 004°03'8 7.7
2014-Oct-22 13:33N 51°58' E 003°51'1 0.7
2014-Oct-22 12:33N 51°59' E 003°51'1 0.5
2014-Oct-22 11:33N 51°58' E 003°52'2 1.7
2014-Oct-22 10:33N 51°58' E 003°49'1 1.0
2014-Oct-22 09:33N 51°58' E 003°47'2 2.1
2014-Oct-22 08:33N 51°57' E 003°44'8 8.1
2014-Oct-22 07:33N 52°01' E 003°32'3 3.1
2014-Oct-22 06:33N 52°03' E 003°28'6 6.3
2014-Oct-22 05:33N 52°01' E 003°38'2 1.9
2014-Oct-22 04:31N 51°59' E 003°38'2 2.6
2014-Oct-22 03:33N 52°01' E 003°37'8 5.1
2014-Oct-22 02:05N 51°56' E 003°28'5 7.7
2014-Oct-22 01:28N 51°58' E 003°21'7 5.1
2014-Oct-22 00:05N 52°04' E 003°28'3 4.7
2014-Oct-21 23:32N 52°03' E 003°32'3 3.3
2014-Oct-21 22:33N 52°01' E 003°36'4 3.5
2014-Oct-21 21:33N 51°60' E 003°41'3 3.3
2014-Oct-21 20:33N 51°60' E 003°46'3 3.1
2014-Oct-21 19:32N 51°58' E 003°41'8 7.8
2014-Oct-21 18:33N 51°56' E 003°30'8 8.0
2014-Oct-21 17:33N 51°53' E 003°18'7 7.2
2014-Oct-21 16:34N 51°51' E 003°06'2110.2
2014-Oct-21 14:28N 51°43' E 002°34'1010.7
2014-Oct-21 13:33N 51°36' E 002°24'1211.6
2014-Oct-21 12:33N 51°26' E 002°13'1111.2
2014-Oct-21 11:33N 51°16' E 002°07'1413.6
2014-Oct-21 10:34N 51°09' E 001°49'1514.9
2014-Oct-21 09:33N 50°58' E 001°32'1413.0
2014-Oct-21 08:29N 50°45' E 001°23'  
Track history (hours):
 
Tides and Currents Weather Stations Pressure Air Temp Water Temp Dewpoint Dewpoint Depression Visibility Wind Speed Wind Dir Waves Ship Positions

Norient Star

Last reported at 2014-Oct-25 00:21 UTC. Time now 2014-Oct-25 00:40 UTC.
Position N 51°53' E 004°21'.

Length 180 m; draft 6.8 m.

Type: Ship. MMSI: 249434000.

Date/timePositionNaut miles runAvg speedWind from/ knotsBaromVisibWave heightAir tempDewpointWater temp
2014-Oct-25 00:21N 51°53' E 004°21'0 0.0
2014-Oct-24 23:30N 51°53' E 004°21'0 0.0
2014-Oct-24 22:30N 51°53' E 004°21'0 0.0
2014-Oct-24 21:33N 51°53' E 004°21'0 0.0
2014-Oct-24 20:30N 51°53' E 004°21'0 0.0
2014-Oct-24 19:18N 51°53' E 004°21'0 0.0
2014-Oct-24 18:33N 51°53' E 004°21'0 0.0
2014-Oct-24 17:33N 51°53' E 004°21'0 0.0
2014-Oct-24 16:09N 51°53' E 004°21'0 0.0
2014-Oct-24 15:33N 51°53' E 004°21'0 0.0
2014-Oct-24 14:21N 51°53' E 004°21'0 0.0
2014-Oct-24 13:30N 51°53' E 004°21'0 0.0
2014-Oct-24 12:30N 51°53' E 004°21'0 0.0
2014-Oct-24 11:30N 51°53' E 004°21'0 0.0
2014-Oct-24 10:18N 51°53' E 004°21'0 0.0
2014-Oct-24 09:24N 51°53' E 004°21'0 0.0
2014-Oct-24 08:33N 51°53' E 004°21'0 0.0
2014-Oct-24 07:33N 51°53' E 004°21'0 0.0
2014-Oct-24 06:33N 51°53' E 004°21'0 0.0
2014-Oct-24 05:30N 51°53' E 004°21'0 0.0
2014-Oct-24 04:30N 51°53' E 004°21'0 0.0
2014-Oct-24 03:33N 51°53' E 004°21'0 0.0
2014-Oct-24 02:18N 51°53' E 004°21'0 0.0
2014-Oct-24 01:30N 51°53' E 004°21'0 0.0
2014-Oct-24 00:30N 51°53' E 004°21'0 0.0
2014-Oct-23 23:30N 51°53' E 004°21'0 0.0
2014-Oct-23 22:18N 51°53' E 004°21'0 0.0
2014-Oct-23 21:32N 51°53' E 004°21'0 0.0
2014-Oct-23 20:08N 51°53' E 004°21'0 0.0
2014-Oct-23 19:32N 51°53' E 004°21'0 0.0
2014-Oct-23 18:26N 51°53' E 004°21'0 0.0
2014-Oct-23 17:32N 51°53' E 004°21'0 0.0
2014-Oct-23 16:26N 51°53' E 004°21'0 0.0
2014-Oct-23 15:26N 51°53' E 004°21'161160.8
2014-Oct-23 14:26N 51°53' E 000°00'161168.9
2014-Oct-23 13:28N 51°53' E 004°21'0 0.0
2014-Oct-23 11:28N 51°53' E 004°21'0 0.0
2014-Oct-23 10:32N 51°53' E 004°21'0 0.0
2014-Oct-23 09:32N 51°53' E 004°21'0 0.0
2014-Oct-23 08:28N 51°53' E 004°21'0 0.0
2014-Oct-23 07:26N 51°53' E 004°21'0 0.0
2014-Oct-23 06:32N 51°53' E 004°21'0 0.0
2014-Oct-23 05:32N 51°53' E 004°21'0 0.0
2014-Oct-23 04:22N 51°53' E 004°21'0 0.0
2014-Oct-23 03:26N 51°53' E 004°21'0 0.0
2014-Oct-23 02:28N 51°53' E 004°21'0 0.0
2014-Oct-23 01:28N 51°53' E 004°21'0 0.0
2014-Oct-23 00:28N 51°53' E 004°21'0 0.0
2014-Oct-22 23:32N 51°53' E 004°21'0 0.0
2014-Oct-22 22:20N 51°53' E 004°21'0 0.0
2014-Oct-22 21:32N 51°53' E 004°21'0 0.0
2014-Oct-22 20:26N 51°53' E 004°21'0 0.0
2014-Oct-22 19:22N 51°53' E 004°21'0 0.0
2014-Oct-22 18:22N 51°53' E 004°21'0 0.0
2014-Oct-22 17:32N 51°53' E 004°21'0 0.0
2014-Oct-22 16:33N 51°53' E 004°21'3 3.0
2014-Oct-22 15:33N 51°54' E 004°16'9 9.4
2014-Oct-22 14:33N 51°59' E 004°03'8 7.7
2014-Oct-22 13:33N 51°58' E 003°51'1 0.7
2014-Oct-22 12:33N 51°59' E 003°51'1 0.5
2014-Oct-22 11:33N 51°58' E 003°52'2 1.7
2014-Oct-22 10:33N 51°58' E 003°49'1 1.0
2014-Oct-22 09:33N 51°58' E 003°47'2 2.1
2014-Oct-22 08:33N 51°57' E 003°44'8 8.1
2014-Oct-22 07:33N 52°01' E 003°32'3 3.1
2014-Oct-22 06:33N 52°03' E 003°28'6 6.3
2014-Oct-22 05:33N 52°01' E 003°38'2 1.9
2014-Oct-22 04:31N 51°59' E 003°38'2 2.6
2014-Oct-22 03:33N 52°01' E 003°37'8 5.1
2014-Oct-22 02:05N 51°56' E 003°28'5 7.7
2014-Oct-22 01:28N 51°58' E 003°21'7 5.1
2014-Oct-22 00:05N 52°04' E 003°28'3 4.7
2014-Oct-21 23:32N 52°03' E 003°32'3 3.3
2014-Oct-21 22:33N 52°01' E 003°36'4 3.5
2014-Oct-21 21:33N 51°60' E 003°41'3 3.3
2014-Oct-21 20:33N 51°60' E 003°46'3 3.1
2014-Oct-21 19:32N 51°58' E 003°41'8 7.8
2014-Oct-21 18:33N 51°56' E 003°30'8 8.0
2014-Oct-21 17:33N 51°53' E 003°18'7 7.2
2014-Oct-21 16:34N 51°51' E 003°06'2110.2
2014-Oct-21 14:28N 51°43' E 002°34'1010.7
2014-Oct-21 13:33N 51°36' E 002°24'1211.6
2014-Oct-21 12:33N 51°26' E 002°13'1111.2
2014-Oct-21 11:33N 51°16' E 002°07'1413.6
2014-Oct-21 10:34N 51°09' E 001°49'1514.9
2014-Oct-21 09:33N 50°58' E 001°32'1413.0
2014-Oct-21 08:29N 50°45' E 001°23'  

Dump ship's entire track history